| time (UTC) | temp F | wind direction | speed MPH | gust MPH | rain 1hr in | rain 24hr in | rain mn in | humidity % | barometer mb |
| 20260831093330 | 76 | 168 | 2.0 | 3.0 | 0.00 | 0.23 | 0.00 | 74 | 1014.0 |
| 20260831092831 | 76 | 198 | 5.0 | 3.0 | 0.00 | 0.23 | 0.00 | 74 | 1014.1 |
| 20260831092330 | 76 | 210 | 3.0 | 3.0 | 0.00 | 0.23 | 0.00 | 75 | 1014.0 |
| 20260831091831 | 76 | 191 | 3.0 | 3.0 | 0.00 | 0.23 | 0.00 | 75 | 1014.2 |
| 20260831091330 | 76 | 215 | 2.0 | 2.0 | 0.00 | 0.23 | 0.00 | 75 | 1014.3 |
| 20260831090831 | 76 | 172 | 2.0 | 2.0 | 0.00 | 0.23 | 0.00 | 75 | 1014.2 |
| 20260831090330 | 76 | 203 | 2.0 | 2.0 | 0.00 | 0.23 | 0.00 | 75 | 1014.1 |
| 20260831085831 | 76 | 193 | 2.0 | 2.0 | 0.00 | 0.23 | 0.00 | 75 | 1014.2 |
| 20260831085330 | 76 | 191 | 3.0 | 2.0 | 0.00 | 0.23 | 0.00 | 75 | 1014.3 |
| 20260831084830 | 76 | 172 | 7.0 | 2.0 | 0.00 | 0.23 | 0.00 | 75 | 1014.3 |
| 20260831084330 | 76 | 173 | 4.0 | 2.0 | 0.00 | 0.23 | 0.00 | 75 | 1014.3 |
| 20260831083830 | 76 | 202 | 1.0 | 2.0 | 0.00 | 0.23 | 0.00 | 76 | 1014.3 |
| 20260831083330 | 76 | 191 | 2.0 | 2.0 | 0.00 | 0.23 | 0.00 | 76 | 1014.3 |
| 20260831082831 | 76 | 224 | 3.0 | 1.0 | 0.00 | 0.23 | 0.00 | 76 | 1014.2 |
| 20260831082330 | 76 | 167 | 2.0 | 1.0 | 0.00 | 0.23 | 0.00 | 76 | 1014.1 |
| 20260831081831 | 76 | 0 | 0.0 | 1.0 | 0.00 | 0.23 | 0.00 | 76 | 1014.2 |
| 20260831081330 | 76 | 0 | 0.0 | 1.0 | 0.00 | 0.23 | 0.00 | 76 | 1014.2 |
| 20260831080831 | 76 | 0 | 0.0 | 1.0 | 0.00 | 0.23 | 0.00 | 76 | 1014.3 |
| 20260831080330 | 76 | 187 | 4.0 | 1.0 | 0.00 | 0.23 | 0.00 | 76 | 1014.2 |
| 20260831075831 | 76 | 0 | 0.0 | 1.0 | 0.00 | 0.23 | 0.00 | 76 | 1014.4 |
| 20260831075330 | 76 | 0 | 0.0 | 1.0 | 0.00 | 0.23 | 0.00 | 76 | 1014.3 |
| 20260831074831 | 76 | 179 | 3.0 | 1.0 | 0.00 | 0.23 | 0.00 | 77 | 1014.4 |
| 20260831074331 | 76 | 185 | 4.0 | 1.0 | 0.00 | 0.23 | 0.00 | 77 | 1014.5 |
| 20260831073831 | 76 | 172 | 3.0 | 2.0 | 0.00 | 0.23 | 0.00 | 77 | 1014.3 |
| 20260831073331 | 76 | 0 | 0.0 | 2.0 | 0.00 | 0.23 | 0.00 | 78 | 1014.3 |
| 20260831072832 | 76 | 0 | 0.0 | 2.0 | 0.00 | 0.23 | 0.00 | 78 | 1014.3 |
| 20260831072331 | 76 | 186 | 1.0 | 2.0 | 0.00 | 0.23 | 0.00 | 78 | 1014.5 |
| 20260831071831 | 76 | 190 | 3.0 | 1.0 | 0.00 | 0.23 | 0.00 | 79 | 1014.5 |
| 20260831071331 | 76 | 0 | 0.0 | 1.0 | 0.00 | 0.23 | 0.00 | 79 | 1014.6 |
| 20260831070832 | 76 | 0 | 0.0 | 1.0 | 0.00 | 0.23 | 0.00 | 79 | 1014.5 |
| 20260831070331 | 76 | 0 | 0.0 | 1.0 | 0.00 | 0.23 | 0.00 | 80 | 1014.5 |
| 20260831065831 | 76 | 192 | 4.0 | 1.0 | 0.00 | 0.23 | 0.00 | 80 | 1014.5 |
| 20260831065331 | 76 | 0 | 0.0 | 1.0 | 0.00 | 0.23 | 0.00 | 80 | 1014.5 |
| 20260831064831 | 76 | 181 | 2.0 | 1.0 | 0.00 | 0.23 | 0.00 | 80 | 1014.6 |
| 20260831064332 | 76 | 0 | 0.0 | 1.0 | 0.00 | 0.23 | 0.00 | 80 | 1014.6 |
| 20260831063832 | 76 | 152 | 1.0 | 1.0 | 0.00 | 0.23 | 0.00 | 80 | 1014.6 |
| 20260831063331 | 76 | 0 | 0.0 | 1.0 | 0.00 | 0.23 | 0.00 | 80 | 1014.7 |
| 20260831062831 | 76 | 177 | 3.0 | 1.0 | 0.00 | 0.23 | 0.00 | 80 | 1014.7 |
| 20260831062331 | 76 | 0 | 0.0 | 1.0 | 0.00 | 0.23 | 0.00 | 80 | 1014.7 |
| 20260831061831 | 76 | 198 | 1.0 | 1.0 | 0.00 | 0.23 | 0.00 | 80 | 1014.7 |
| 20260831061331 | 76 | 219 | 1.0 | 1.0 | 0.00 | 0.23 | 0.00 | 80 | 1014.8 |
| 20260831060831 | 76 | 0 | 0.0 | 1.0 | 0.00 | 0.23 | 0.00 | 80 | 1014.8 |
| 20260831060331 | 76 | 0 | 0.0 | 1.0 | 0.00 | 0.23 | 0.00 | 80 | 1014.9 |
| 20260831055832 | 76 | 0 | 0.0 | 1.0 | 0.00 | 0.23 | 0.00 | 80 | 1014.8 |
| 20260831055331 | 76 | 185 | 1.0 | 1.0 | 0.00 | 0.23 | 0.00 | 80 | 1014.7 |
| 20260831054831 | 76 | 168 | 3.0 | 0.0 | 0.00 | 0.23 | 0.00 | 80 | 1014.7 |
| 20260831054331 | 76 | 0 | 0.0 | 1.0 | 0.00 | 0.23 | 0.00 | 80 | 1014.6 |
| 20260831053831 | 76 | 0 | 0.0 | 1.0 | 0.00 | 0.23 | 0.00 | 81 | 1014.7 |
| 20260831053330 | 76 | 177 | 1.0 | 1.0 | 0.00 | 0.23 | 0.00 | 81 | 1014.6 |
| 20260831052831 | 76 | 0 | 0.0 | 1.0 | 0.00 | 0.23 | 0.00 | 82 | 1014.7 |
| 20260831052331 | 76 | 196 | 2.0 | 1.0 | 0.00 | 0.23 | 0.00 | 82 | 1014.7 |
| 20260831051831 | 76 | 162 | 2.0 | 1.0 | 0.00 | 0.23 | 0.00 | 83 | 1014.6 |
| 20260831051330 | 76 | 0 | 0.0 | 1.0 | 0.00 | 0.23 | 0.00 | 83 | 1014.8 |
| 20260831050832 | 76 | 108 | 1.0 | 0.0 | 0.00 | 0.23 | 0.00 | 84 | 1014.8 |
| 20260831050331 | 76 | 200 | 2.0 | 1.0 | 0.00 | 0.23 | 0.00 | 84 | 1014.7 |
| 20260831045831 | 75 | 0 | 0.0 | 1.0 | 0.00 | 0.23 | 0.23 | 84 | 1014.8 |
| 20260831045331 | 75 | 0 | 0.0 | 1.0 | 0.00 | 0.23 | 0.23 | 84 | 1014.9 |
| 20260831044831 | 75 | 142 | 1.0 | 1.0 | 0.00 | 0.23 | 0.23 | 85 | 1014.8 |
| 20260831044331 | 75 | 0 | 0.0 | 1.0 | 0.01 | 0.23 | 0.23 | 85 | 1014.9 |
| 20260831043831 | 76 | 116 | 1.0 | 0.0 | 0.01 | 0.23 | 0.23 | 85 | 1014.8 |
| 20260831043331 | 76 | 141 | 1.0 | 0.0 | 0.01 | 0.23 | 0.23 | 86 | 1014.9 |
| 20260831042831 | 76 | 0 | 0.0 | 1.0 | 0.01 | 0.23 | 0.23 | 86 | 1014.9 |
| 20260831042330 | 76 | 0 | 0.0 | 1.0 | 0.01 | 0.23 | 0.23 | 86 | 1015.0 |
| 20260831041831 | 76 | 70 | 2.0 | 0.0 | 0.01 | 0.23 | 0.23 | 86 | 1014.9 |
| 20260831041331 | 76 | 103 | 2.0 | 0.0 | 0.01 | 0.23 | 0.23 | 86 | 1014.8 |
| 20260831040831 | 76 | 0 | 0.0 | 1.0 | 0.01 | 0.23 | 0.23 | 86 | 1014.8 |
| 20260831040331 | 76 | 172 | 1.0 | 1.0 | 0.01 | 0.23 | 0.23 | 86 | 1014.8 |
| 20260831035831 | 76 | 129 | 1.0 | 2.0 | 0.01 | 0.23 | 0.23 | 86 | 1014.7 |
| 20260831035331 | 76 | 172 | 1.0 | 2.0 | 0.01 | 0.23 | 0.23 | 86 | 1014.5 |
| 20260831034831 | 76 | 197 | 3.0 | 3.0 | 0.01 | 0.23 | 0.23 | 86 | 1014.9 |
| 20260831034331 | 76 | 212 | 2.0 | 3.0 | 0.00 | 0.22 | 0.22 | 87 | 1015.0 |
| 20260831033831 | 76 | 221 | 3.0 | 3.0 | 0.00 | 0.22 | 0.22 | 87 | 1015.2 |
| 20260831033331 | 76 | 203 | 3.0 | 4.0 | 0.00 | 0.22 | 0.22 | 87 | 1015.3 |
| 20260831032831 | 76 | 213 | 4.0 | 3.0 | 0.00 | 0.22 | 0.22 | 87 | 1015.5 |
| 20260831032331 | 76 | 203 | 1.0 | 3.0 | 0.00 | 0.22 | 0.22 | 87 | 1015.5 |
| 20260831031831 | 76 | 217 | 4.0 | 3.0 | 0.00 | 0.22 | 0.22 | 87 | 1015.6 |
| 20260831031330 | 76 | 219 | 5.0 | 3.0 | 0.00 | 0.22 | 0.22 | 87 | 1015.6 |
| 20260831030831 | 76 | 213 | 4.0 | 3.0 | 0.00 | 0.22 | 0.22 | 88 | 1015.5 |
| 20260831030331 | 76 | 155 | 1.0 | 3.0 | 0.00 | 0.22 | 0.22 | 88 | 1015.6 |
| 20260831025831 | 76 | 214 | 4.0 | 3.0 | 0.00 | 0.22 | 0.22 | 88 | 1015.7 |
| 20260831025330 | 76 | 207 | 3.0 | 3.0 | 0.00 | 0.22 | 0.22 | 88 | 1015.5 |
| 20260831024831 | 76 | 180 | 3.0 | 3.0 | 0.00 | 0.22 | 0.22 | 88 | 1015.5 |
| 20260831024331 | 76 | 205 | 1.0 | 3.0 | 0.00 | 0.22 | 0.22 | 88 | 1015.6 |
| 20260831023832 | 76 | 214 | 2.0 | 3.0 | 0.00 | 0.22 | 0.22 | 88 | 1015.6 |
| 20260831023330 | 75 | 214 | 3.0 | 3.0 | 0.00 | 0.22 | 0.22 | 88 | 1015.5 |
| 20260831022831 | 75 | 196 | 5.0 | 2.0 | 0.00 | 0.22 | 0.22 | 88 | 1015.4 |
| 20260831022331 | 75 | 207 | 2.0 | 1.0 | 0.00 | 0.22 | 0.22 | 88 | 1015.6 |
| 20260831021831 | 75 | 0 | 0.0 | 1.0 | 0.00 | 0.22 | 0.22 | 88 | 1015.6 |
| 20260831021330 | 75 | 206 | 1.0 | 1.0 | 0.00 | 0.22 | 0.22 | 88 | 1015.6 |
| 20260831020831 | 75 | 0 | 0.0 | 0.0 | 0.00 | 0.22 | 0.22 | 88 | 1015.6 |
| 20260831020331 | 75 | 0 | 0.0 | 0.0 | 0.00 | 0.22 | 0.22 | 88 | 1015.6 |
| 20260831015832 | 75 | 0 | 0.0 | 0.0 | 0.00 | 0.22 | 0.22 | 88 | 1015.7 |
| 20260831015331 | 75 | 165 | 1.0 | 0.0 | 0.00 | 0.22 | 0.22 | 88 | 1015.7 |
| 20260831014831 | 75 | 0 | 0.0 | 0.0 | 0.00 | 0.22 | 0.22 | 88 | 1015.7 |
| 20260831014330 | 75 | 0 | 0.0 | 0.0 | 0.00 | 0.22 | 0.22 | 88 | 1015.6 |
| 20260831013831 | 75 | 0 | 0.0 | 0.0 | 0.00 | 0.22 | 0.22 | 88 | 1015.4 |
| 20260831013331 | 75 | 191 | 2.0 | 0.0 | 0.00 | 0.22 | 0.22 | 87 | 1015.3 |
| 20260831012831 | 75 | 0 | 0.0 | 0.0 | 0.00 | 0.22 | 0.22 | 87 | 1015.3 |
| 20260831012330 | 75 | 0 | 0.0 | 0.0 | 0.00 | 0.22 | 0.22 | 87 | 1015.2 |
| 20260831011831 | 75 | 0 | 0.0 | 0.0 | 0.00 | 0.22 | 0.22 | 87 | 1015.2 |
| 20260831011330 | 75 | 0 | 0.0 | 0.0 | 0.00 | 0.22 | 0.22 | 87 | 1015.2 |
| 20260831010832 | 75 | 0 | 0.0 | 0.0 | 0.00 | 0.22 | 0.22 | 87 | 1015.0 |
| 20260831010330 | 76 | 191 | 1.0 | 1.0 | 0.00 | 0.22 | 0.22 | 87 | 1015.0 |
| 20260831005831 | 76 | 191 | 1.0 | 1.0 | 0.00 | 0.22 | 0.22 | 87 | 1015.0 |
| 20260831005331 | 76 | 195 | 1.0 | 1.0 | 0.00 | 0.22 | 0.22 | 87 | 1015.1 |
| 20260831004834 | 76 | 0 | 0.0 | 1.0 | 0.00 | 0.22 | 0.22 | 87 | 1015.2 |
| 20260831004330 | 76 | 234 | 1.0 | 2.0 | 0.00 | 0.22 | 0.22 | 87 | 1015.1 |
| 20260831003831 | 76 | 153 | 1.0 | 2.0 | 0.00 | 0.22 | 0.22 | 87 | 1014.7 |
| 20260831003330 | 76 | 178 | 3.0 | 2.0 | 0.00 | 0.22 | 0.22 | 87 | 1014.6 |
| 20260831002831 | 76 | 210 | 1.0 | 1.0 | 0.01 | 0.22 | 0.22 | 87 | 1014.9 |
| 20260831002332 | 76 | 174 | 1.0 | 1.0 | 0.01 | 0.22 | 0.22 | 87 | 1015.0 |
| 20260831001832 | 76 | 0 | 0.0 | 1.0 | 0.01 | 0.22 | 0.22 | 87 | 1014.9 |
| 20260831001330 | 76 | 183 | 3.0 | 1.0 | 0.01 | 0.22 | 0.22 | 86 | 1015.0 |
| 20260831000831 | 76 | 0 | 0.0 | 1.0 | 0.01 | 0.22 | 0.22 | 86 | 1015.3 |
| 20260831000333 | 76 | 171 | 2.0 | 1.0 | 0.01 | 0.22 | 0.22 | 86 | 1015.6 |
| 20260830235831 | 76 | 186 | 1.0 | 0.0 | 0.01 | 0.22 | 0.22 | 86 | 1015.6 |
| 20260830235330 | 76 | 0 | 0.0 | 0.0 | 0.01 | 0.22 | 0.22 | 86 | 1015.7 |
| 20260830234831 | 76 | 186 | 1.0 | 0.0 | 0.01 | 0.22 | 0.22 | 86 | 1015.7 |
| 20260830234330 | 76 | 0 | 0.0 | 0.0 | 0.01 | 0.22 | 0.22 | 85 | 1015.6 |
| 20260830233831 | 76 | 0 | 0.0 | 0.0 | 0.02 | 0.22 | 0.22 | 85 | 1015.6 |
| 20260830233331 | 76 | 126 | 1.0 | 0.0 | 0.02 | 0.22 | 0.22 | 85 | 1015.5 |
| 20260830232831 | 76 | 0 | 0.0 | 0.0 | 0.01 | 0.21 | 0.21 | 85 | 1015.7 |
| 20260830232330 | 76 | 0 | 0.0 | 1.0 | 0.02 | 0.21 | 0.21 | 85 | 1015.8 |
| 20260830231831 | 76 | 180 | 1.0 | 1.0 | 0.02 | 0.21 | 0.21 | 85 | 1015.8 |
| 20260830231330 | 76 | 0 | 0.0 | 1.0 | 0.02 | 0.21 | 0.21 | 84 | 1015.8 |
| 20260830230831 | 76 | 0 | 0.0 | 1.0 | 0.02 | 0.21 | 0.21 | 84 | 1016.0 |
| 20260830230331 | 76 | 223 | 1.0 | 2.0 | 0.02 | 0.21 | 0.21 | 84 | 1016.0 |
| 20260830225831 | 77 | 0 | 0.0 | 2.0 | 0.02 | 0.21 | 0.21 | 83 | 1016.0 |
| 20260830225330 | 77 | 193 | 1.0 | 1.0 | 0.02 | 0.21 | 0.21 | 83 | 1016.0 |
| 20260830224831 | 77 | 216 | 2.0 | 1.0 | 0.02 | 0.21 | 0.21 | 82 | 1015.9 |
| 20260830224330 | 77 | 0 | 0.0 | 1.0 | 0.02 | 0.21 | 0.21 | 82 | 1015.8 |
| 20260830223831 | 77 | 0 | 0.0 | 1.0 | 0.01 | 0.20 | 0.20 | 81 | 1015.8 |
| 20260830223330 | 77 | 181 | 1.0 | 1.0 | 0.01 | 0.20 | 0.20 | 80 | 1015.8 |
| 20260830222831 | 78 | 172 | 1.0 | 1.0 | 0.01 | 0.20 | 0.20 | 80 | 1015.8 |
| 20260830222330 | 78 | 183 | 5.0 | 1.0 | 0.00 | 0.19 | 0.19 | 80 | 1015.7 |
| 20260830221831 | 77 | 0 | 0.0 | 0.0 | 0.00 | 0.19 | 0.19 | 79 | 1015.7 |
| 20260830221331 | 77 | 0 | 0.0 | 0.0 | 0.00 | 0.19 | 0.19 | 79 | 1015.7 |
| 20260830220831 | 77 | 0 | 0.0 | 1.0 | 0.00 | 0.19 | 0.19 | 79 | 1015.7 |
| 20260830220330 | 77 | 0 | 0.0 | 1.0 | 0.00 | 0.19 | 0.19 | 79 | 1015.7 |
| 20260830215831 | 77 | 263 | 1.0 | 1.0 | 0.00 | 0.19 | 0.19 | 78 | 1015.8 |
| 20260830215331 | 77 | 0 | 0.0 | 1.0 | 0.00 | 0.19 | 0.19 | 78 | 1015.7 |
| 20260830214830 | 77 | 0 | 0.0 | 2.0 | 0.00 | 0.19 | 0.19 | 78 | 1015.8 |
| 20260830214331 | 77 | 233 | 3.0 | 2.0 | 0.00 | 0.19 | 0.19 | 78 | 1015.8 |
| 20260830213831 | 78 | 214 | 1.0 | 2.0 | 0.00 | 0.19 | 0.19 | 78 | 1015.9 |
| 20260830213330 | 78 | 186 | 1.0 | 2.0 | 0.00 | 0.19 | 0.19 | 78 | 1015.9 |
| 20260830212831 | 78 | 213 | 2.0 | 2.0 | 0.00 | 0.19 | 0.19 | 78 | 1015.9 |
| 20260830212330 | 78 | 224 | 2.0 | 3.0 | 0.00 | 0.19 | 0.19 | 78 | 1015.9 |
| 20260830211831 | 78 | 208 | 1.0 | 3.0 | 0.00 | 0.19 | 0.19 | 77 | 1016.0 |
| 20260830211331 | 78 | 224 | 3.0 | 3.0 | 0.00 | 0.19 | 0.19 | 77 | 1016.1 |
| 20260830210831 | 79 | 224 | 3.0 | 3.0 | 0.00 | 0.19 | 0.19 | 77 | 1016.0 |
| 20260830210330 | 79 | 208 | 4.0 | 2.0 | 0.00 | 0.19 | 0.19 | 77 | 1016.1 |
| 20260830205831 | 79 | 190 | 5.0 | 3.0 | 0.00 | 0.19 | 0.19 | 77 | 1016.0 |
| 20260830205330 | 79 | 234 | 3.0 | 4.0 | 0.00 | 0.19 | 0.19 | 77 | 1015.9 |
| 20260830204831 | 79 | 214 | 9.0 | 4.0 | 0.00 | 0.19 | 0.19 | 77 | 1016.0 |
| 20260830204330 | 79 | 202 | 4.0 | 4.0 | 0.00 | 0.19 | 0.19 | 78 | 1015.8 |
| 20260830203831 | 78 | 200 | 1.0 | 4.0 | 0.00 | 0.19 | 0.19 | 78 | 1015.8 |
| 20260830203331 | 78 | 209 | 2.0 | 4.0 | 0.00 | 0.19 | 0.19 | 78 | 1015.9 |
| 20260830202831 | 78 | 230 | 4.0 | 4.0 | 0.00 | 0.19 | 0.19 | 78 | 1015.9 |
| 20260830202330 | 78 | 212 | 3.0 | 4.0 | 0.00 | 0.19 | 0.19 | 78 | 1015.9 |
| 20260830201831 | 78 | 216 | 3.0 | 4.0 | 0.00 | 0.19 | 0.19 | 77 | 1015.8 |
| 20260830201331 | 78 | 179 | 6.0 | 5.0 | 0.00 | 0.19 | 0.19 | 76 | 1015.6 |
| 20260830200831 | 79 | 211 | 9.0 | 5.0 | 0.00 | 0.19 | 0.19 | 75 | 1015.7 |
| 20260830200330 | 79 | 221 | 3.0 | 4.0 | 0.00 | 0.19 | 0.19 | 74 | 1015.7 |
| 20260830195830 | 80 | 200 | 7.0 | 3.0 | 0.00 | 0.19 | 0.19 | 73 | 1015.8 |
| 20260830195331 | 80 | 237 | 3.0 | 3.0 | 0.00 | 0.19 | 0.19 | 72 | 1016.0 |
| 20260830194831 | 81 | 188 | 3.0 | 3.0 | 0.00 | 0.19 | 0.19 | 71 | 1016.1 |
| 20260830194330 | 81 | 223 | 2.0 | 3.0 | 0.00 | 0.19 | 0.19 | 70 | 1016.1 |
| 20260830193830 | 81 | 188 | 4.0 | 3.0 | 0.00 | 0.19 | 0.19 | 69 | 1016.2 |
| 20260830193331 | 82 | 227 | 4.0 | 3.0 | 0.00 | 0.19 | 0.19 | 68 | 1016.2 |
| 20260830192831 | 82 | 212 | 3.0 | 2.0 | 0.00 | 0.19 | 0.19 | 68 | 1016.1 |
| 20260830192330 | 82 | 205 | 2.0 | 2.0 | 0.00 | 0.19 | 0.19 | 67 | 1016.1 |
| 20260830191831 | 81 | 212 | 2.0 | 2.0 | 0.00 | 0.19 | 0.19 | 67 | 1016.2 |
| 20260830191330 | 81 | 220 | 3.0 | 3.0 | 0.00 | 0.19 | 0.19 | 67 | 1016.1 |
| 20260830190831 | 82 | 221 | 3.0 | 3.0 | 0.00 | 0.19 | 0.19 | 66 | 1016.1 |
| 20260830190331 | 82 | 242 | 2.0 | 4.0 | 0.00 | 0.19 | 0.19 | 66 | 1015.8 |
| 20260830185831 | 82 | 227 | 5.0 | 5.0 | 0.00 | 0.19 | 0.19 | 65 | 1015.6 |
| 20260830185331 | 82 | 212 | 3.0 | 5.0 | 0.00 | 0.19 | 0.19 | 64 | 1015.5 |
| 20260830184831 | 82 | 217 | 5.0 | 6.0 | 0.00 | 0.19 | 0.19 | 64 | 1015.2 |
| 20260830184331 | 83 | 195 | 3.0 | 6.0 | 0.00 | 0.19 | 0.19 | 63 | 1015.0 |
| 20260830183832 | 83 | 231 | 8.0 | 5.0 | 0.00 | 0.19 | 0.19 | 62 | 1014.8 |
| 20260830183330 | 84 | 224 | 5.0 | 5.0 | 0.00 | 0.19 | 0.19 | 62 | 1014.7 |
| 20260830182832 | 84 | 197 | 5.0 | 4.0 | 0.00 | 0.19 | 0.19 | 62 | 1014.6 |
| 20260830182330 | 84 | 163 | 8.0 | 5.0 | 0.00 | 0.19 | 0.19 | 63 | 1014.5 |
| 20260830181831 | 84 | 229 | 6.0 | 5.0 | 0.00 | 0.19 | 0.19 | 62 | 1014.7 |
| 20260830181330 | 84 | 203 | 5.0 | 6.0 | 0.00 | 0.19 | 0.19 | 62 | 1014.8 |
| 20260830180831 | 84 | 188 | 5.0 | 7.0 | 0.00 | 0.19 | 0.19 | 62 | 1014.7 |
| 20260830180330 | 84 | 219 | 8.0 | 7.0 | 0.00 | 0.19 | 0.19 | 61 | 1014.7 |
| 20260830175831 | 85 | 224 | 5.0 | 7.0 | 0.00 | 0.19 | 0.19 | 60 | 1014.8 |
| 20260830175331 | 86 | 196 | 9.0 | 6.0 | 0.00 | 0.19 | 0.19 | 59 | 1014.8 |
| 20260830174831 | 86 | 203 | 7.0 | 6.0 | 0.00 | 0.19 | 0.19 | 60 | 1014.9 |
| 20260830174330 | 85 | 220 | 3.0 | 7.0 | 0.00 | 0.19 | 0.19 | 62 | 1015.0 |
| 20260830173831 | 84 | 243 | 6.0 | 8.0 | 0.00 | 0.19 | 0.19 | 60 | 1015.1 |
| 20260830173332 | 85 | 213 | 4.0 | 7.0 | 0.00 | 0.19 | 0.19 | 60 | 1015.0 |
| 20260830172831 | 85 | 208 | 5.0 | 6.0 | 0.00 | 0.19 | 0.19 | 60 | 1015.1 |
| 20260830172330 | 85 | 217 | 8.0 | 5.0 | 0.00 | 0.19 | 0.19 | 60 | 1015.1 |
| 20260830171832 | 85 | 210 | 7.0 | 6.0 | 0.00 | 0.19 | 0.19 | 62 | 1015.1 |
| 20260830171331 | 84 | 223 | 6.0 | 7.0 | 0.00 | 0.19 | 0.19 | 62 | 1015.0 |
| 20260830170831 | 83 | 165 | 3.0 | 6.0 | 0.00 | 0.19 | 0.19 | 63 | 1015.1 |
| 20260830170332 | 83 | 212 | 5.0 | 6.0 | 0.00 | 0.19 | 0.19 | 63 | 1015.2 |
| 20260830165830 | 83 | 200 | 10.0 | 6.0 | 0.00 | 0.19 | 0.19 | 64 | 1015.1 |
| 20260830165330 | 83 | 229 | 6.0 | 7.0 | 0.00 | 0.19 | 0.19 | 64 | 1015.1 |
| 20260830164830 | 82 | 173 | 4.0 | 7.0 | 0.00 | 0.19 | 0.19 | 66 | 1015.1 |
| 20260830163831 | 81 | 205 | 3.0 | 5.0 | 0.00 | 0.19 | 0.19 | 68 | 1015.2 |
| 20260830162832 | 80 | 196 | 5.0 | 6.0 | 0.00 | 0.19 | 0.19 | 70 | 1015.1 |
| 20260830162331 | 79 | 154 | 5.0 | 5.0 | 0.00 | 0.19 | 0.19 | 71 | 1015.1 |
| 20260830161832 | 79 | 177 | 7.0 | 6.0 | 0.00 | 0.19 | 0.19 | 73 | 1015.1 |
| 20260830161331 | 78 | 276 | 4.0 | 6.0 | 0.00 | 0.19 | 0.19 | 74 | 1015.1 |
| 20260830160832 | 77 | 209 | 7.0 | 5.0 | 0.00 | 0.19 | 0.19 | 75 | 1015.3 |
| 20260830160331 | 77 | 153 | 4.0 | 5.0 | 0.00 | 0.19 | 0.19 | 76 | 1015.3 |
| 20260830155832 | 76 | 204 | 3.0 | 6.0 | 0.00 | 0.19 | 0.19 | 77 | 1015.3 |
| 20260830155332 | 76 | 200 | 5.0 | 5.0 | 0.00 | 0.19 | 0.19 | 77 | 1015.3 |
| 20260830154831 | 75 | 180 | 5.0 | 5.0 | 0.00 | 0.19 | 0.19 | 78 | 1015.3 |
| 20260830154331 | 75 | 220 | 8.0 | 5.0 | 0.00 | 0.19 | 0.19 | 78 | 1015.3 |
| 20260830153832 | 75 | 181 | 7.0 | 5.0 | 0.00 | 0.19 | 0.19 | 78 | 1015.2 |
| 20260830152832 | 75 | 202 | 7.0 | 4.0 | 0.00 | 0.19 | 0.19 | 81 | 1015.1 |
| 20260830152331 | 75 | 173 | 4.0 | 4.0 | 0.00 | 0.19 | 0.19 | 82 | 1015.1 |
| 20260830151836 | 74 | 162 | 9.0 | 4.0 | 0.00 | 0.19 | 0.19 | 83 | 1015.1 |
| 20260830151331 | 73 | 221 | 5.0 | 5.0 | 0.00 | 0.19 | 0.19 | 83 | 1015.0 |
| 20260830150831 | 73 | 168 | 6.0 | 5.0 | 0.00 | 0.19 | 0.19 | 85 | 1015.3 |
| 20260830150332 | 73 | 188 | 3.0 | 5.0 | 0.00 | 0.19 | 0.19 | 86 | 1015.3 |
| 20260830145831 | 72 | 170 | 4.0 | 5.0 | 0.00 | 0.19 | 0.19 | 87 | 1015.3 |
| 20260830145331 | 71 | 179 | 1.0 | 4.0 | 0.00 | 0.19 | 0.19 | 88 | 1015.1 |
| 20260830144832 | 71 | 135 | 5.0 | 4.0 | 0.00 | 0.19 | 0.19 | 88 | 1015.2 |
| 20260830144332 | 71 | 179 | 6.0 | 4.0 | 0.00 | 0.19 | 0.19 | 88 | 1015.2 |
| 20260830143831 | 70 | 228 | 4.0 | 5.0 | 0.00 | 0.19 | 0.19 | 89 | 1015.3 |
| 20260830143331 | 70 | 198 | 3.0 | 5.0 | 0.01 | 0.19 | 0.19 | 89 | 1015.4 |
| 20260830142832 | 70 | 221 | 6.0 | 5.0 | 0.06 | 0.19 | 0.19 | 89 | 1015.4 |
| 20260830142333 | 70 | 203 | 5.0 | 5.0 | 0.10 | 0.19 | 0.19 | 89 | 1015.3 |
| 20260830141831 | 70 | 232 | 4.0 | 6.0 | 0.10 | 0.19 | 0.19 | 89 | 1015.3 |
| 20260830141331 | 69 | 184 | 5.0 | 6.0 | 0.10 | 0.19 | 0.19 | 89 | 1015.3 |
| 20260830140831 | 69 | 221 | 7.0 | 5.0 | 0.10 | 0.19 | 0.19 | 89 | 1015.4 |
| 20260830140331 | 69 | 191 | 9.0 | 5.0 | 0.11 | 0.19 | 0.19 | 89 | 1015.3 |
| 20260830135832 | 69 | 181 | 8.0 | 4.0 | 0.12 | 0.19 | 0.19 | 89 | 1015.3 |
| 20260830134832 | 69 | 221 | 2.0 | 5.0 | 0.14 | 0.19 | 0.19 | 88 | 1015.5 |
| 20260830134332 | 69 | 184 | 7.0 | 5.0 | 0.15 | 0.19 | 0.19 | 88 | 1015.6 |
| 20260830133831 | 69 | 217 | 5.0 | 5.0 | 0.15 | 0.19 | 0.19 | 88 | 1015.6 |
| 20260830133331 | 69 | 182 | 2.0 | 5.0 | 0.14 | 0.17 | 0.17 | 88 | 1015.6 |
| 20260830132832 | 69 | 177 | 7.0 | 5.0 | 0.11 | 0.13 | 0.13 | 87 | 1015.8 |
| 20260830132332 | 69 | 202 | 6.0 | 5.0 | 0.07 | 0.09 | 0.09 | 87 | 1016.2 |
| 20260830131832 | 70 | 190 | 5.0 | 4.0 | 0.08 | 0.09 | 0.09 | 87 | 1016.2 |
| 20260830131332 | 70 | 186 | 5.0 | 3.0 | 0.08 | 0.09 | 0.09 | 86 | 1016.4 |
| 20260830130832 | 70 | 176 | 4.0 | 3.0 | 0.08 | 0.09 | 0.09 | 86 | 1016.5 |
| 20260830130332 | 70 | 217 | 3.0 | 3.0 | 0.07 | 0.08 | 0.08 | 86 | 1016.8 |
| 20260830125832 | 70 | 215 | 4.0 | 4.0 | 0.06 | 0.07 | 0.07 | 85 | 1016.7 |
| 20260830125332 | 70 | 226 | 1.0 | 4.0 | 0.05 | 0.06 | 0.06 | 85 | 1016.5 |
| 20260830124831 | 70 | 219 | 1.0 | 4.0 | 0.04 | 0.05 | 0.05 | 84 | 1016.5 |
| 20260830124333 | 70 | 221 | 3.0 | 4.0 | 0.03 | 0.04 | 0.04 | 83 | 1016.7 |
| 20260830123831 | 71 | 205 | 2.0 | 4.0 | 0.02 | 0.03 | 0.03 | 83 | 1016.6 |
| 20260830123333 | 71 | 165 | 4.0 | 4.0 | 0.02 | 0.03 | 0.03 | 82 | 1016.6 |
| 20260830122832 | 71 | 192 | 5.0 | 4.0 | 0.01 | 0.02 | 0.02 | 82 | 1016.5 |
| 20260830122333 | 71 | 217 | 4.0 | 4.0 | 0.01 | 0.02 | 0.02 | 81 | 1016.5 |
| 20260830121833 | 71 | 215 | 2.0 | 4.0 | 0.00 | 0.01 | 0.01 | 81 | 1016.6 |
| 20260830121331 | 71 | 202 | 3.0 | 4.0 | 0.01 | 0.01 | 0.01 | 81 | 1016.5 |
| 20260830120832 | 71 | 204 | 1.0 | 4.0 | 0.01 | 0.01 | 0.01 | 81 | 1016.4 |
| 20260830120332 | 71 | 226 | 8.0 | 4.0 | 0.01 | 0.01 | 0.01 | 81 | 1016.2 |
| 20260830115832 | 71 | 187 | 5.0 | 4.0 | 0.01 | 0.01 | 0.01 | 81 | 1016.1 |
| 20260830115331 | 71 | 217 | 4.0 | 5.0 | 0.01 | 0.01 | 0.01 | 81 | 1016.0 |
| 20260830114832 | 71 | 213 | 4.0 | 4.0 | 0.01 | 0.01 | 0.01 | 80 | 1015.8 |
| 20260830114333 | 71 | 219 | 6.0 | 4.0 | 0.01 | 0.01 | 0.01 | 80 | 1015.7 |
| 20260830113832 | 72 | 209 | 3.0 | 4.0 | 0.01 | 0.01 | 0.01 | 79 | 1015.8 |
| 20260830113332 | 72 | 197 | 4.0 | 4.0 | 0.01 | 0.01 | 0.01 | 78 | 1015.8 |
| 20260830112832 | 72 | 193 | 5.0 | 3.0 | 0.01 | 0.01 | 0.01 | 78 | 1015.8 |
| 20260830112331 | 73 | 200 | 4.0 | 4.0 | 0.01 | 0.01 | 0.01 | 77 | 1015.7 |
| 20260830111831 | 73 | 209 | 3.0 | 5.0 | 0.01 | 0.01 | 0.01 | 76 | 1015.6 |
| 20260830111332 | 73 | 214 | 3.0 | 5.0 | 0.00 | 0.00 | 0.00 | 75 | 1015.6 |
| 20260830110831 | 73 | 216 | 6.0 | 4.0 | 0.00 | 0.00 | 0.00 | 74 | 1015.6 |
| 20260830110331 | 73 | 198 | 5.0 | 5.0 | 0.00 | 0.00 | 0.00 | 73 | 1015.4 |
| 20260830105832 | 73 | 186 | 6.0 | 5.0 | 0.00 | 0.00 | 0.00 | 73 | 1015.0 |
| 20260830105331 | 73 | 193 | 8.0 | 4.0 | 0.00 | 0.00 | 0.00 | 73 | 1015.0 |
| 20260830104831 | 73 | 209 | 1.0 | 4.0 | 0.00 | 0.00 | 0.00 | 73 | 1014.9 |
| 20260830104331 | 73 | 202 | 3.0 | 4.0 | 0.00 | 0.00 | 0.00 | 73 | 1015.0 |
| 20260830103831 | 73 | 178 | 2.0 | 4.0 | 0.00 | 0.00 | 0.00 | 73 | 1015.0 |
| 20260830103331 | 73 | 170 | 7.0 | 4.0 | 0.00 | 0.00 | 0.00 | 72 | 1015.0 |
| 20260830102831 | 73 | 169 | 5.0 | 4.0 | 0.00 | 0.00 | 0.00 | 72 | 1015.0 |
| 20260830102331 | 73 | 203 | 7.0 | 4.0 | 0.00 | 0.00 | 0.00 | 72 | 1015.0 |
| 20260830101831 | 73 | 193 | 3.0 | 4.0 | 0.00 | 0.00 | 0.00 | 72 | 1014.9 |
| 20260830101331 | 73 | 198 | 2.0 | 4.0 | 0.00 | 0.00 | 0.00 | 72 | 1015.0 |
| 20260830100831 | 73 | 198 | 4.0 | 4.0 | 0.00 | 0.00 | 0.00 | 72 | 1015.0 |
| 20260830100331 | 73 | 193 | 4.0 | 4.0 | 0.00 | 0.00 | 0.00 | 72 | 1014.9 |
| 20260830095831 | 73 | 124 | 4.0 | 5.0 | 0.00 | 0.00 | 0.00 | 72 | 1014.9 |
| 20260830095331 | 73 | 202 | 5.0 | 4.0 | 0.00 | 0.00 | 0.00 | 72 | 1014.9 |
| 20260830094831 | 73 | 191 | 3.0 | 4.0 | 0.00 | 0.00 | 0.00 | 72 | 1015.0 |
| 20260830094331 | 73 | 195 | 5.0 | 4.0 | 0.00 | 0.00 | 0.00 | 72 | 1014.9 |
| 20260830093831 | 73 | 192 | 3.0 | 4.0 | 0.00 | 0.00 | 0.00 | 72 | 1014.9 |